Terminal Aerodrome Forecast
Issued by NWS

Home | Current Version | Previous Version | Text Only | Print | Product List | Glossary On
Versions: 1 2 3 4 5 6 7 8 9 10 11 12 13 14 15 16 17 18 19 20 21 22 23 24 25 26 27 28 29 30 31 32 33 34 35 36 37
000
FTUS45 KBOU 220228 AAA
TAFBJC
TAF AMD
KBJC 220228Z 2202/2224 28005KT P6SM SCT040 BKN080
      TEMPO 2202/2206 -SHRA BKN050
     FM220600 29006KT P6SM VCSH SCT050 BKN080
     FM220800 28005KT P6SM SCT080 BKN110
     FM221500 15007KT P6SM SCT060 BKN110 PROB30 2215/2219 -SHRA
      BKN060
     FM221900 30010KT P6SM SCT070 BKN100 PROB30 2219/2224 VRB15G30KT
      -TSRA BKN060CB=

USA.gov is the U.S. government's official web portal to all federal, state and local government web resources and services.